Time;durP1;ratioP1;P1;durP2;ratioP2;P2;SDS_P1;SDS_P2;PMS_P1;PMS_P2;Temp;Humidity;BMP_temperature;BMP_pressure;BME280_temperature;BME280_humidity;BME280_pressure;Samples;Min_cycle;Max_cycle;Signal;HPM_P1;HPM_P2
2021/01/08 00:00:17;;;;;;;19.00;11.47;;;4.10;99.90;;;;;;5101168;28;20501;-60
2021/01/08 00:02:43;;;;;;;28.90;12.03;;;4.10;99.90;;;;;;5117750;28;20441;-59
2021/01/08 00:05:12;;;;;;;19.17;10.13;;;4.00;99.90;;;;;;5117552;28;20442;-58
2021/01/08 00:07:39;;;;;;;21.47;10.63;;;3.80;99.90;;;;;;5117856;28;20425;-60
2021/01/08 00:10:07;;;;;;;16.77;9.23;;;3.70;99.90;;;;;;5118294;28;20445;-59
2021/01/08 00:12:34;;;;;;;18.23;10.40;;;3.70;99.90;;;;;;5117936;28;20438;-58
2021/01/08 00:15:01;;;;;;;20.73;11.10;;;3.60;99.90;;;;;;5116149;28;20469;-59
2021/01/08 00:17:30;;;;;;;20.27;10.40;;;3.50;99.90;;;;;;5111578;28;20474;-60
2021/01/08 00:19:56;;;;;;;16.70;10.10;;;3.50;99.90;;;;;;5112535;28;20433;-58
2021/01/08 00:22:24;;;;;;;16.63;10.00;;;3.50;99.90;;;;;;5112939;28;20477;-58
2021/01/08 00:24:52;;;;;;;19.47;10.27;;;3.40;99.90;;;;;;5117768;28;20425;-60
2021/01/08 00:27:18;;;;;;;18.27;10.00;;;3.40;99.90;;;;;;5117755;28;20464;-57
2021/01/08 00:29:45;;;;;;;21.37;12.33;;;3.40;99.90;;;;;;5117319;28;20483;-59
2021/01/08 00:32:11;;;;;;;22.97;12.20;;;3.40;99.90;;;;;;5117701;28;20434;-59
2021/01/08 00:34:38;;;;;;;16.60;10.23;;;3.40;99.90;;;;;;5117147;28;20434;-58
2021/01/08 00:37:05;;;;;;;18.87;12.17;;;3.40;99.90;;;;;;5117460;28;20489;-58
2021/01/08 00:39:32;;;;;;;23.23;11.80;;;3.40;99.90;;;;;;5116686;28;20453;-59
2021/01/08 00:41:59;;;;;;;19.67;11.00;;;3.40;99.90;;;;;;5103139;28;20430;-58
2021/01/08 00:44:25;;;;;;;18.77;10.80;;;3.40;99.90;;;;;;5108320;28;20469;-59
2021/01/08 00:46:52;;;;;;;17.90;10.57;;;3.50;99.90;;;;;;5117367;28;20463;-56
2021/01/08 00:49:19;;;;;;;21.27;11.70;;;3.50;99.90;;;;;;5115369;28;20437;-60
2021/01/08 00:51:46;;;;;;;16.30;10.20;;;3.40;99.90;;;;;;5113960;28;20471;-60
2021/01/08 00:54:12;;;;;;;26.07;11.70;;;3.50;99.90;;;;;;5113859;28;20472;-59
2021/01/08 00:56:39;;;;;;;20.35;10.70;;;3.50;99.90;;;;;;5116962;28;20445;-60
2021/01/08 00:59:06;;;;;;;20.73;11.10;;;3.50;99.90;;;;;;5117006;28;20461;-58
2021/01/08 01:01:35;;;;;;;19.10;10.83;;;3.50;99.90;;;;;;5116776;28;20437;-60
2021/01/08 01:04:02;;;;;;;21.70;11.80;;;3.60;99.90;;;;;;5117594;28;20455;-58
2021/01/08 01:06:30;;;;;;;16.37;10.13;;;3.50;99.90;;;;;;5116884;28;20460;-59
2021/01/08 03:29:46;;;;;;;23.00;12.87;;;3.40;99.90;;;;;;5796327;23;20499;-60
2021/01/08 07:40:04;;;;;;;24.10;12.23;;;3.00;99.90;;;;;;5144319;23;20495;-61
2021/01/08 07:42:36;;;;;;;22.97;13.03;;;3.00;99.90;;;;;;5000966;28;20451;-57
2021/01/08 07:45:05;;;;;;;25.97;14.43;;;3.00;99.90;;;;;;5000847;28;20473;-60
2021/01/08 07:47:38;;;;;;;25.13;13.57;;;3.00;99.90;;;;;;4998890;28;20440;-61
2021/01/08 07:50:06;;;;;;;28.30;13.27;;;3.00;99.90;;;;;;4997260;28;20435;-61
2021/01/08 07:52:36;;;;;;;31.00;15.80;;;3.00;99.90;;;;;;4998276;28;20498;-59
2021/01/08 07:55:04;;;;;;;21.20;12.87;;;3.10;99.90;;;;;;4998587;28;20442;-60
2021/01/08 08:10:09;;;;;;;25.63;13.13;;;3.00;99.90;;;;;;4957460;29;20501;-62
2021/01/08 08:12:35;;;;;;;25.37;14.53;;;2.90;99.90;;;;;;4959920;29;20469;-61
2021/01/08 08:15:02;;;;;;;32.07;15.80;;;2.90;99.90;;;;;;4959502;29;20449;-59
2021/01/08 08:17:28;;;;;;;26.13;14.00;;;3.00;99.90;;;;;;4960275;29;20516;-61
2021/01/08 08:19:56;;;;;;;24.10;13.10;;;3.10;99.90;;;;;;4960199;29;20482;-61
2021/01/08 08:22:35;;;;;;;20.50;12.30;;;3.10;99.90;;;;;;4959979;29;20468;-61
2021/01/08 08:25:23;;;;;;;24.10;12.30;;;3.10;99.90;;;;;;4959737;29;20444;-60
2021/01/08 08:27:54;;;;;;;24.47;13.23;;;3.10;99.90;;;;;;4959515;29;20425;-61
2021/01/08 08:30:21;;;;;;;22.27;13.73;;;3.20;99.90;;;;;;4960009;29;20512;-61
2021/01/08 08:32:48;;;;;;;21.27;12.60;;;3.20;99.90;;;;;;4960020;29;20432;-61
2021/01/08 08:35:15;;;;;;;24.30;12.80;;;3.20;99.90;;;;;;4960333;29;20439;-61
2021/01/08 08:37:48;;;;;;;29.20;13.57;;;3.20;99.90;;;;;;4959495;29;20504;-61
2021/01/08 08:40:16;;;;;;;24.90;13.80;;;3.20;99.90;;;;;;4959582;29;20500;-61
2021/01/08 08:42:48;;;;;;;25.47;14.97;;;3.30;99.90;;;;;;4959560;29;20464;-61
2021/01/08 08:45:19;;;;;;;24.90;11.50;;;3.30;99.90;;;;;;4959601;29;20469;-61
2021/01/08 08:47:47;;;;;;;29.87;17.00;;;3.30;99.90;;;;;;4959707;29;20461;-61
2021/01/08 08:50:15;;;;;;;33.37;17.13;;;3.30;99.90;;;;;;4959851;29;20436;-61
2021/01/08 08:52:41;;;;;;;25.00;14.27;;;3.30;99.90;;;;;;4959603;29;20480;-61
2021/01/08 08:55:09;;;;;;;29.63;14.23;;;3.30;99.90;;;;;;4959298;29;20441;-61
2021/01/08 08:57:35;;;;;;;25.10;14.00;;;3.30;99.90;;;;;;4959082;29;20480;-60
2021/01/08 09:00:03;;;;;;;26.53;13.90;;;3.40;99.90;;;;;;4959480;29;20544;-62
2021/01/08 09:02:30;;;;;;;31.00;15.80;;;3.40;99.90;;;;;;4959428;29;20473;-62
2021/01/08 09:04:57;;;;;;;28.93;14.97;;;3.40;99.90;;;;;;4959029;29;20471;-60
2021/01/08 09:07:31;;;;;;;24.00;13.13;;;3.40;99.90;;;;;;4958820;29;20491;-60
2021/01/08 09:10:03;;;;;;;22.93;14.37;;;3.40;99.90;;;;;;4958945;29;20472;-61
2021/01/08 09:12:37;;;;;;;20.83;11.87;;;3.40;99.90;;;;;;4951773;29;20557;-59
2021/01/08 09:15:10;;;;;;;25.33;14.40;;;3.40;99.90;;;;;;4938436;29;20555;-60
2021/01/08 09:17:42;;;;;;;27.73;15.07;;;3.40;99.90;;;;;;4948722;29;20501;-60
2021/01/08 09:20:14;;;;;;;25.87;13.80;;;3.40;99.90;;;;;;4954230;29;20476;-61
2021/01/08 09:22:41;;;;;;;27.73;13.77;;;3.40;99.90;;;;;;4954053;29;20443;-59
2021/01/08 09:25:09;;;;;;;36.70;15.70;;;3.40;99.90;;;;;;4959350;29;20449;-61
2021/01/08 09:27:36;;;;;;;27.93;15.30;;;3.40;99.90;;;;;;4951400;29;20528;-61
2021/01/08 09:30:08;;;;;;;28.53;12.93;;;3.40;99.90;;;;;;4949430;29;20496;-60
2021/01/08 09:32:35;;;;;;;29.90;14.23;;;3.50;99.90;;;;;;4958922;29;20512;-58
2021/01/08 09:35:03;;;;;;;28.43;15.40;;;3.50;99.90;;;;;;4956723;29;20468;-61
2021/01/08 09:37:38;;;;;;;21.80;12.13;;;3.60;99.90;;;;;;4951433;29;20469;-61
2021/01/08 09:40:13;;;;;;;26.60;13.07;;;3.60;99.90;;;;;;4939819;29;20413;-59
2021/01/08 09:42:45;;;;;;;21.60;13.17;;;3.60;99.90;;;;;;4957918;29;20436;-59
2021/01/08 09:45:34;;;;;;;30.30;14.17;;;3.60;99.90;;;;;;4954689;29;20477;-60
2021/01/08 09:48:01;;;;;;;27.87;14.50;;;3.60;99.90;;;;;;4935107;29;20457;-60
2021/01/08 09:50:30;;;;;;;31.23;15.77;;;3.60;99.90;;;;;;4939423;29;20477;-61
2021/01/08 09:52:58;;;;;;;30.57;16.10;;;3.60;99.90;;;;;;4957861;29;20437;-62
2021/01/08 09:55:27;;;;;;;23.63;13.40;;;3.70;99.90;;;;;;4966057;29;20538;-63
2021/01/08 09:57:59;;;;;;;28.40;13.27;;;3.70;99.90;;;;;;4943341;29;20489;-62
2021/01/08 10:00:30;;;;;;;25.90;13.13;;;3.70;99.90;;;;;;4961432;29;20531;-61
2021/01/08 10:02:57;;;;;;;29.97;16.60;;;3.70;99.90;;;;;;4960744;29;20449;-57
2021/01/08 10:05:26;;;;;;;28.50;14.60;;;3.60;99.90;;;;;;4956373;29;20480;-61
2021/01/08 10:07:52;;;;;;;24.10;13.63;;;3.60;99.90;;;;;;4961056;29;20955;-64
2021/01/08 10:10:37;;;;;;;23.60;13.27;;;3.70;99.90;;;;;;4969968;29;20547;-65
2021/01/08 10:13:13;;;;;;;23.60;13.57;;;3.70;99.90;;;;;;4950829;29;20965;-63
2021/01/08 10:15:41;;;;;;;30.43;15.80;;;3.60;99.90;;;;;;4964668;29;20463;-63
2021/01/08 10:18:09;;;;;;;34.33;16.83;;;3.60;99.90;;;;;;4945877;29;20543;-63
2021/01/08 10:20:44;;;;;;;24.23;14.17;;;3.60;99.90;;;;;;4958115;28;20855;-63
2021/01/08 10:23:11;;;;;;;27.23;13.90;;;3.60;99.90;;;;;;4955813;29;20553;-64
2021/01/08 10:25:37;;;;;;;28.77;14.00;;;3.60;99.90;;;;;;4956645;29;20942;-63
2021/01/08 10:28:11;;;;;;;28.93;14.50;;;3.60;99.90;;;;;;4957470;29;20603;-65
2021/01/08 10:30:37;;;;;;;29.30;14.40;;;3.60;99.90;;;;;;4958663;29;20536;-64
2021/01/08 10:33:04;;;;;;;33.77;16.30;;;3.70;99.90;;;;;;4963892;29;21156;-62
2021/01/08 10:35:31;;;;;;;32.30;15.57;;;3.80;99.90;;;;;;4968132;29;20451;-63
2021/01/08 10:37:58;;;;;;;27.90;12.80;;;3.80;99.90;;;;;;4955042;29;20563;-62
2021/01/08 10:40:24;;;;;;;27.83;14.60;;;3.80;99.90;;;;;;4959380;29;20461;-62
2021/01/08 10:42:51;;;;;;;25.97;13.57;;;3.80;99.90;;;;;;4961156;28;20511;-62
2021/01/08 10:45:18;;;;;;;30.40;15.50;;;3.80;99.90;;;;;;4965405;29;20456;-62
2021/01/08 10:47:44;;;;;;;23.63;14.00;;;3.80;99.90;;;;;;4955806;29;20448;-62
2021/01/08 10:50:12;;;;;;;26.30;13.63;;;3.80;99.90;;;;;;4956193;29;20546;-62
2021/01/08 10:52:40;;;;;;;28.50;14.50;;;3.90;99.90;;;;;;4958082;29;20451;-62
2021/01/08 10:55:10;;;;;;;27.37;13.97;;;3.90;99.90;;;;;;4961892;29;20490;-63
2021/01/08 10:57:36;;;;;;;28.10;15.17;;;3.90;99.90;;;;;;4962225;29;20511;-63
2021/01/08 11:00:06;;;;;;;24.77;13.90;;;4.00;99.90;;;;;;4961393;29;20484;-61
2021/01/08 11:02:32;;;;;;;25.50;15.50;;;4.00;99.90;;;;;;4965523;29;20504;-62
2021/01/08 11:04:59;;;;;;;19.20;11.77;;;4.00;99.90;;;;;;4977044;29;20448;-60
2021/01/08 11:07:25;;;;;;;31.13;15.67;;;4.00;99.90;;;;;;4978729;29;20458;-62
2021/01/08 11:09:52;;;;;;;26.83;15.30;;;4.10;99.90;;;;;;4958012;29;20481;-61
2021/01/08 11:12:20;;;;;;;21.77;13.40;;;4.10;99.90;;;;;;4955743;29;20495;-59
2021/01/08 11:14:46;;;;;;;21.17;12.23;;;4.10;99.90;;;;;;4951018;29;20472;-62
2021/01/08 11:17:13;;;;;;;23.30;13.00;;;4.10;99.90;;;;;;4970641;29;20449;-62
2021/01/08 11:19:39;;;;;;;29.03;12.57;;;4.20;99.90;;;;;;4954561;28;20512;-62
2021/01/08 11:22:05;;;;;;;23.20;12.80;;;4.20;99.90;;;;;;4961709;29;20848;-61
2021/01/08 11:24:32;;;;;;;22.57;11.47;;;4.20;99.90;;;;;;4960443;28;20567;-60
2021/01/08 11:26:59;;;;;;;27.67;16.87;;;4.50;99.90;;;;;;4956895;29;20527;-61
2021/01/08 11:29:25;;;;;;;19.97;12.83;;;4.90;99.90;;;;;;4960177;29;20445;-62
2021/01/08 11:31:52;;;;;;;22.40;12.73;;;4.80;99.90;;;;;;4954100;29;20491;-62
2021/01/08 11:34:18;;;;;;;21.77;12.70;;;4.70;99.90;;;;;;4962332;29;20496;-61
2021/01/08 11:36:47;;;;;;;20.17;11.10;;;4.50;99.90;;;;;;4957627;29;20524;-60
2021/01/08 11:39:15;;;;;;;25.73;12.83;;;4.40;99.90;;;;;;4961249;29;20531;-61
2021/01/08 11:41:41;;;;;;;25.43;15.00;;;4.40;99.90;;;;;;4968820;29;20452;-62
2021/01/08 11:44:08;;;;;;;28.97;15.43;;;4.40;99.90;;;;;;4953843;29;20578;-62
2021/01/08 11:46:35;;;;;;;23.30;14.37;;;4.40;99.90;;;;;;4960755;29;20491;-59
2021/01/08 11:49:01;;;;;;;26.03;15.10;;;4.30;99.90;;;;;;4960769;29;20472;-61
2021/01/08 11:51:28;;;;;;;23.23;12.30;;;4.20;99.90;;;;;;4968803;29;20456;-61
2021/01/08 11:53:54;;;;;;;19.60;11.37;;;4.20;99.90;;;;;;4954752;29;20539;-62
2021/01/08 11:56:27;;;;;;;22.03;11.87;;;4.20;99.90;;;;;;4955303;29;20524;-62
2021/01/08 11:58:54;;;;;;;23.00;13.97;;;4.30;99.90;;;;;;4944512;29;20471;-63
2021/01/08 12:01:26;;;;;;;24.93;12.33;;;4.30;99.90;;;;;;4953311;29;20535;-61
2021/01/08 12:03:53;;;;;;;27.87;13.10;;;4.40;99.90;;;;;;4966812;29;20439;-62
2021/01/08 12:06:25;;;;;;;21.70;11.00;;;4.30;99.90;;;;;;4963608;29;20534;-61
2021/01/08 12:08:52;;;;;;;16.47;10.67;;;4.20;99.90;;;;;;4937931;29;20491;-64
2021/01/08 12:11:19;;;;;;;20.93;9.53;;;4.10;99.90;;;;;;4951629;29;20510;-62
2021/01/08 12:13:45;;;;;;;19.70;9.40;;;4.00;99.90;;;;;;4959264;29;20445;-61
2021/01/08 12:16:24;;;;;;;16.70;10.00;;;3.90;99.90;;;;;;4964837;29;20961;-62
2021/01/08 12:18:51;;;;;;;18.63;8.07;;;3.80;99.90;;;;;;4961192;29;20536;-62
2021/01/08 12:21:18;;;;;;;16.53;8.80;;;3.80;99.90;;;;;;4964997;29;20464;-62
2021/01/08 12:23:48;;;;;;;17.07;10.17;;;3.80;99.90;;;;;;4960055;29;20512;-62
2021/01/08 12:26:16;;;;;;;16.30;8.93;;;3.70;99.90;;;;;;4953064;29;20448;-62
2021/01/08 12:28:42;;;;;;;16.00;7.90;;;3.80;99.90;;;;;;4972267;29;20507;-62
2021/01/08 12:31:09;;;;;;;17.67;10.50;;;3.80;99.90;;;;;;4964691;29;20472;-63
2021/01/08 12:33:36;;;;;;;15.23;8.07;;;3.80;99.90;;;;;;4963371;29;20496;-63
2021/01/08 12:36:03;;;;;;;15.80;8.80;;;3.80;99.90;;;;;;4961711;29;20462;-62
2021/01/08 12:38:30;;;;;;;12.90;8.50;;;3.80;99.90;;;;;;4958361;29;20507;-63
2021/01/08 12:40:56;;;;;;;12.97;9.13;;;3.90;99.90;;;;;;4960894;29;20520;-63
2021/01/08 12:43:51;;;;;;;14.60;8.83;;;3.80;99.90;;;;;;4951442;29;20570;-62
2021/01/08 12:46:19;;;;;;;19.80;10.20;;;3.80;99.90;;;;;;4957183;29;20425;-63
2021/01/08 12:48:46;;;;;;;15.10;8.80;;;3.80;99.90;;;;;;4956460;29;20436;-63
2021/01/08 12:51:14;;;;;;;15.53;9.37;;;3.70;99.90;;;;;;4960281;29;20547;-63
2021/01/08 12:53:41;;;;;;;11.57;6.67;;;3.80;99.90;;;;;;4959550;29;20515;-61
2021/01/08 12:56:27;;;;;;;13.20;7.27;;;3.80;99.90;;;;;;4961893;29;20444;-63
2021/01/08 12:58:53;;;;;;;17.80;9.10;;;3.90;99.90;;;;;;4967025;29;20511;-61
2021/01/08 13:01:23;;;;;;;14.80;9.80;;;3.90;99.90;;;;;;4970288;29;20488;-64
2021/01/08 13:03:50;;;;;;;16.30;11.30;;;3.90;99.90;;;;;;4963876;29;20449;-62
2021/01/08 13:06:23;;;;;;;15.97;8.47;;;3.90;99.90;;;;;;4965042;29;20509;-62
2021/01/08 13:08:49;;;;;;;15.63;9.17;;;3.90;99.90;;;;;;4961465;29;20472;-62
2021/01/08 13:11:16;;;;;;;12.53;7.43;;;3.90;99.90;;;;;;4968646;29;20431;-61
2021/01/08 13:13:42;;;;;;;12.90;7.83;;;3.80;99.90;;;;;;4970198;29;20455;-62
2021/01/08 13:16:08;;;;;;;10.37;7.57;;;3.70;99.90;;;;;;4961864;29;20460;-62
2021/01/08 13:18:35;;;;;;;19.73;9.03;;;3.70;99.90;;;;;;4963425;29;20539;-62
2021/01/08 13:21:02;;;;;;;12.90;7.90;;;3.80;99.90;;;;;;4961678;28;20491;-61
2021/01/08 13:23:29;;;;;;;15.17;8.43;;;3.80;99.90;;;;;;4961316;29;20472;-61
2021/01/08 13:25:56;;;;;;;16.37;7.67;;;3.80;99.90;;;;;;4964336;29;20452;-60
2021/01/08 13:28:22;;;;;;;15.10;7.93;;;3.70;99.90;;;;;;4968638;29;20447;-61
2021/01/08 13:30:50;;;;;;;15.30;6.80;;;3.80;99.90;;;;;;4966704;29;20448;-63
2021/01/08 13:33:16;;;;;;;16.30;7.30;;;3.70;99.90;;;;;;4971467;29;20432;-61
2021/01/08 13:35:43;;;;;;;14.90;6.83;;;3.70;99.90;;;;;;4958034;29;20452;-61
2021/01/08 13:38:10;;;;;;;15.87;7.23;;;3.70;99.90;;;;;;4955646;29;20468;-62
2021/01/08 13:40:37;;;;;;;11.93;6.00;;;3.70;99.90;;;;;;4956431;29;20765;-62
2021/01/08 13:43:03;;;;;;;17.30;7.80;;;3.70;99.90;;;;;;4959033;29;20491;-61
2021/01/08 13:45:32;;;;;;;11.63;7.07;;;3.70;99.90;;;;;;4953942;29;20449;-61
2021/01/08 13:47:59;;;;;;;11.03;6.63;;;3.60;99.90;;;;;;4959520;29;20822;-60
2021/01/08 13:50:25;;;;;;;12.13;6.67;;;3.60;99.90;;;;;;4961129;29;20460;-62
2021/01/08 13:52:52;;;;;;;11.73;7.53;;;3.70;99.90;;;;;;4966585;29;20456;-62
2021/01/08 13:55:20;;;;;;;13.60;6.60;;;3.60;99.90;;;;;;4953939;29;20447;-62
2021/01/08 13:57:46;;;;;;;13.10;7.40;;;3.60;99.90;;;;;;4962687;29;20920;-60
2021/01/08 14:00:14;;;;;;;15.00;6.77;;;3.70;99.90;;;;;;4956742;29;20523;-63
2021/01/08 14:02:41;;;;;;;12.70;7.70;;;3.60;99.90;;;;;;4966718;29;20483;-65
2021/01/08 14:05:11;;;;;;;11.83;7.03;;;3.60;99.90;;;;;;4967614;28;20436;-64
2021/01/08 14:07:39;;;;;;;11.30;7.10;;;3.60;99.90;;;;;;4953224;29;20526;-60
2021/01/08 14:10:06;;;;;;;14.00;7.20;;;3.60;99.90;;;;;;4961473;29;20486;-60
2021/01/08 14:12:34;;;;;;;11.43;6.17;;;3.60;99.90;;;;;;4971027;29;20491;-61
2021/01/08 14:15:00;;;;;;;16.60;5.80;;;3.60;99.90;;;;;;4959556;29;20459;-61
2021/01/08 14:17:27;;;;;;;8.40;5.70;;;3.60;99.90;;;;;;4971738;29;20440;-55
2021/01/08 14:19:54;;;;;;;11.80;6.23;;;3.60;99.90;;;;;;4958040;29;20455;-61
2021/01/08 14:22:21;;;;;;;11.40;7.60;;;3.50;99.90;;;;;;4972347;29;20459;-59
2021/01/08 14:24:49;;;;;;;16.40;7.80;;;3.40;99.90;;;;;;4971952;29;20460;-59
2021/01/08 14:27:16;;;;;;;18.63;7.50;;;3.40;99.90;;;;;;4968136;29;20451;-61
2021/01/08 14:29:46;;;;;;;11.40;7.90;;;3.40;99.90;;;;;;4967567;29;20445;-60
2021/01/08 14:32:13;;;;;;;13.60;7.50;;;3.60;99.90;;;;;;4976260;29;20514;-60
2021/01/08 14:34:40;;;;;;;15.20;8.00;;;3.50;99.90;;;;;;4968181;29;20462;-60
2021/01/08 14:37:07;;;;;;;10.73;6.60;;;3.60;99.90;;;;;;4977010;29;20435;-61
2021/01/08 14:39:33;;;;;;;15.07;8.23;;;3.50;99.90;;;;;;4977248;29;20470;-62
2021/01/08 14:42:00;;;;;;;17.70;7.63;;;3.40;99.90;;;;;;4977973;29;20447;-62
2021/01/08 14:44:26;;;;;;;17.33;7.80;;;3.30;99.90;;;;;;4971598;29;20441;-61
2021/01/08 14:46:53;;;;;;;17.80;8.53;;;3.40;99.90;;;;;;4964651;29;20464;-61
2021/01/08 14:49:20;;;;;;;13.47;7.73;;;3.30;99.90;;;;;;4964024;29;20475;-62
2021/01/08 14:51:46;;;;;;;12.30;6.80;;;3.40;99.90;;;;;;4953606;29;20451;-61
2021/01/08 14:54:13;;;;;;;13.27;7.10;;;3.40;99.90;;;;;;4966283;29;20460;-62
2021/01/08 14:56:46;;;;;;;12.73;6.17;;;3.40;99.90;;;;;;4967247;29;20463;-61
2021/01/08 14:59:15;;;;;;;15.30;6.93;;;3.40;99.90;;;;;;4958271;29;20503;-61
2021/01/08 15:01:44;;;;;;;12.17;6.70;;;3.40;99.90;;;;;;4968117;29;20472;-62
2021/01/08 15:04:11;;;;;;;13.60;7.80;;;3.50;99.90;;;;;;4966602;29;20443;-62
2021/01/08 15:06:38;;;;;;;12.80;6.80;;;3.60;99.90;;;;;;4965264;29;20534;-61
2021/01/08 15:09:05;;;;;;;17.40;8.10;;;3.60;99.90;;;;;;4963179;29;20807;-62
2021/01/08 15:11:32;;;;;;;10.40;6.73;;;3.60;99.90;;;;;;4966510;29;20444;-62
2021/01/08 15:13:59;;;;;;;13.33;7.67;;;3.60;99.90;;;;;;4955775;29;20453;-62
2021/01/08 15:16:25;;;;;;;14.30;6.73;;;3.60;99.90;;;;;;4966374;29;20466;-61
2021/01/08 15:18:52;;;;;;;9.60;5.63;;;3.60;99.90;;;;;;4959928;29;20479;-62
2021/01/08 15:21:19;;;;;;;8.10;4.80;;;3.60;99.90;;;;;;4971761;28;20462;-62
2021/01/08 15:23:46;;;;;;;11.00;6.03;;;3.60;99.90;;;;;;4962057;29;20453;-62
2021/01/08 15:26:14;;;;;;;14.37;5.83;;;3.60;99.90;;;;;;4959761;29;20459;-61
2021/01/08 15:28:41;;;;;;;11.00;5.37;;;3.50;99.90;;;;;;4954999;28;20450;-61
2021/01/08 15:31:09;;;;;;;8.03;5.17;;;3.50;99.90;;;;;;4971109;29;20479;-62
2021/01/08 15:33:36;;;;;;;8.33;4.70;;;3.50;99.90;;;;;;4969017;29;20514;-62
2021/01/08 15:36:04;;;;;;;10.23;4.87;;;3.50;99.90;;;;;;4962296;29;20461;-62
2021/01/08 15:38:33;;;;;;;5.90;4.40;;;3.50;99.90;;;;;;4966134;29;20494;-61
2021/01/08 15:41:01;;;;;;;8.13;5.37;;;3.50;99.90;;;;;;4965326;29;20451;-61
2021/01/08 15:43:28;;;;;;;8.03;5.10;;;3.40;99.90;;;;;;4953947;29;20452;-62
2021/01/08 15:45:55;;;;;;;9.63;5.97;;;3.50;99.90;;;;;;4966687;29;20451;-61
2021/01/08 15:48:23;;;;;;;8.77;4.47;;;3.40;99.90;;;;;;4954372;29;20448;-62
2021/01/08 15:50:50;;;;;;;8.10;5.33;;;3.40;99.90;;;;;;4954469;28;20456;-62
2021/01/08 15:53:16;;;;;;;7.63;5.80;;;3.40;99.90;;;;;;4976918;28;20452;-62
2021/01/08 15:55:44;;;;;;;7.03;4.10;;;3.40;99.90;;;;;;4964822;29;20452;-61
2021/01/08 15:58:11;;;;;;;4.80;3.80;;;3.40;99.90;;;;;;4973995;29;20483;-61
2021/01/08 16:00:39;;;;;;;6.23;4.10;;;3.40;99.90;;;;;;4973134;29;20761;-62
2021/01/08 16:03:06;;;;;;;6.50;4.20;;;3.30;99.90;;;;;;4975571;29;20455;-62
2021/01/08 16:05:32;;;;;;;5.43;4.10;;;3.20;99.90;;;;;;4961033;29;20460;-62
2021/01/08 16:07:59;;;;;;;5.67;3.80;;;3.10;99.90;;;;;;4965304;29;20444;-63
2021/01/08 16:10:26;;;;;;;8.23;4.57;;;3.10;99.90;;;;;;4964150;29;20480;-62
2021/01/08 16:12:54;;;;;;;10.43;6.33;;;3.20;99.90;;;;;;4970040;29;20454;-62
2021/01/08 16:15:21;;;;;;;8.87;3.83;;;3.10;99.90;;;;;;4964804;29;20820;-62
2021/01/08 16:17:50;;;;;;;4.80;3.50;;;3.10;99.90;;;;;;4973150;29;20456;-62
2021/01/08 16:20:17;;;;;;;5.53;4.13;;;3.10;99.90;;;;;;4959532;29;20440;-62
2021/01/08 16:22:43;;;;;;;8.27;3.83;;;3.10;99.90;;;;;;4964472;29;20471;-63
2021/01/08 16:25:11;;;;;;;6.63;4.17;;;3.20;99.90;;;;;;4972825;29;20464;-63
2021/01/08 16:27:39;;;;;;;6.40;3.87;;;3.30;99.90;;;;;;4956756;29;20957;-64
2021/01/08 16:30:08;;;;;;;6.50;4.33;;;3.20;99.90;;;;;;4961118;29;20472;-63
2021/01/08 16:32:35;;;;;;;5.33;3.60;;;3.20;99.90;;;;;;4972766;28;20451;-61
2021/01/08 16:35:02;;;;;;;3.73;2.83;;;3.20;99.90;;;;;;4971747;29;20452;-62
2021/01/08 16:37:28;;;;;;;5.90;3.90;;;3.20;99.90;;;;;;4963548;29;20607;-62
2021/01/08 16:39:55;;;;;;;10.70;5.53;;;3.20;99.90;;;;;;4957973;29;20514;-62
2021/01/08 16:44:57;;;;;;;6.00;4.20;;;3.10;99.90;;;;;;5640157;23;20501;-62
2021/01/08 16:47:24;;;;;;;6.37;4.00;;;3.20;99.90;;;;;;4977157;28;20432;-62
2021/01/08 16:49:51;;;;;;;4.83;3.33;;;3.20;99.90;;;;;;4987843;28;20455;-62
2021/01/08 16:52:18;;;;;;;4.97;3.23;;;3.30;99.90;;;;;;4991832;28;20514;-62
2021/01/08 16:54:45;;;;;;;5.17;3.50;;;3.30;99.90;;;;;;4984866;28;20450;-63
2021/01/08 16:57:12;;;;;;;4.77;3.60;;;3.30;99.90;;;;;;4987385;28;20542;-64
2021/01/08 16:59:38;;;;;;;5.33;3.37;;;3.40;99.90;;;;;;4977760;28;20468;-62
2021/01/08 17:02:05;;;;;;;4.50;3.50;;;3.40;99.90;;;;;;4972400;28;20484;-63
2021/01/08 17:04:32;;;;;;;4.37;3.00;;;3.40;99.90;;;;;;4983465;28;20471;-63
2021/01/08 17:06:58;;;;;;;7.30;3.90;;;3.40;99.90;;;;;;4981164;28;20439;-63
2021/01/08 17:09:25;;;;;;;4.00;2.70;;;3.40;99.90;;;;;;4982510;28;20443;-62
2021/01/08 17:11:51;;;;;;;6.30;3.17;;;3.30;99.90;;;;;;4982845;28;20551;-61
2021/01/08 17:14:19;;;;;;;6.90;3.87;;;3.30;99.90;;;;;;4984202;28;20493;-62
2021/01/08 17:16:45;;;;;;;6.83;4.30;;;3.30;99.90;;;;;;4987069;28;20463;-62
2021/01/08 17:19:11;;;;;;;5.73;4.00;;;3.40;99.90;;;;;;4984630;28;20483;-63
2021/01/08 17:21:40;;;;;;;4.67;3.10;;;3.40;99.90;;;;;;4983452;28;20507;-61
2021/01/08 17:24:09;;;;;;;5.13;3.60;;;3.30;99.90;;;;;;4981526;28;20479;-62
2021/01/08 17:26:36;;;;;;;4.40;3.33;;;3.20;99.90;;;;;;4984116;28;20484;-61
2021/01/08 17:29:04;;;;;;;5.70;4.07;;;3.20;99.90;;;;;;4979931;28;20458;-61
2021/01/08 17:31:30;;;;;;;5.43;3.80;;;3.20;99.90;;;;;;4977740;28;20472;-62
2021/01/08 17:33:59;;;;;;;4.00;3.60;;;3.20;99.90;;;;;;4975083;28;20492;-57
2021/01/08 17:36:25;;;;;;;5.23;3.90;;;3.20;99.90;;;;;;4990884;28;20451;-61
2021/01/08 17:38:52;;;;;;;4.87;3.87;;;3.20;99.90;;;;;;4994548;28;20490;-61
2021/01/08 17:41:19;;;;;;;5.77;3.53;;;3.30;99.90;;;;;;4994251;28;20655;-60
2021/01/08 17:43:45;;;;;;;4.60;3.83;;;3.20;99.90;;;;;;4993851;28;20462;-60
2021/01/08 17:46:13;;;;;;;5.40;4.10;;;3.20;99.90;;;;;;4992830;28;20498;-59
2021/01/08 17:48:39;;;;;;;5.23;4.07;;;3.30;99.90;;;;;;4992849;28;20463;-59
2021/01/08 17:51:08;;;;;;;5.33;4.10;;;3.30;99.90;;;;;;4991815;28;20514;-60
2021/01/08 17:53:36;;;;;;;4.50;3.27;;;3.30;99.90;;;;;;4991678;28;20479;-58
2021/01/08 17:56:03;;;;;;;6.03;3.33;;;3.40;99.90;;;;;;4991672;28;20451;-61
2021/01/08 17:58:30;;;;;;;7.10;5.07;;;3.30;99.90;;;;;;4991678;28;20483;-61
2021/01/08 18:00:56;;;;;;;5.20;3.20;;;3.40;99.90;;;;;;4991873;28;20486;-58
2021/01/08 18:03:22;;;;;;;5.87;4.63;;;3.40;99.90;;;;;;4991839;28;20450;-55
2021/01/08 18:05:52;;;;;;;6.63;3.70;;;3.40;99.90;;;;;;4992157;28;20447;-57
2021/01/08 18:08:19;;;;;;;5.37;3.60;;;3.40;99.90;;;;;;4991141;28;20470;-58
2021/01/08 18:10:48;;;;;;;4.40;3.20;;;3.40;99.90;;;;;;4991453;28;20447;-55
2021/01/08 18:13:15;;;;;;;4.37;3.47;;;3.40;99.90;;;;;;4991447;28;20505;-58
2021/01/08 18:15:42;;;;;;;5.10;3.37;;;3.50;99.90;;;;;;4991647;28;20466;-56
2021/01/08 18:18:08;;;;;;;4.87;3.47;;;3.40;99.90;;;;;;4991163;28;20518;-56
2021/01/08 18:20:35;;;;;;;4.37;3.43;;;3.40;99.90;;;;;;4991622;28;20447;-59
2021/01/08 18:23:01;;;;;;;4.70;2.73;;;3.40;99.90;;;;;;4991462;28;20486;-59
2021/01/08 18:25:28;;;;;;;6.60;3.30;;;3.40;99.90;;;;;;4991560;28;20443;-58
2021/01/08 18:27:55;;;;;;;5.80;4.50;;;3.40;99.90;;;;;;4991204;28;20481;-60
2021/01/08 18:30:23;;;;;;;7.50;5.57;;;3.30;99.90;;;;;;4991173;28;20474;-56
2021/01/08 18:32:49;;;;;;;3.97;2.60;;;3.30;99.90;;;;;;4991660;28;20439;-59
2021/01/08 18:35:17;;;;;;;5.43;3.57;;;3.40;99.90;;;;;;4994699;28;20466;-59
2021/01/08 18:37:43;;;;;;;4.67;3.67;;;3.40;99.90;;;;;;4995533;28;20542;-59
2021/01/08 18:40:11;;;;;;;24.00;12.40;;;3.50;99.90;;;;;;4994739;28;20497;-59
2021/01/08 18:42:38;;;;;;;4.70;3.07;;;3.50;99.90;;;;;;4995209;28;20470;-55
2021/01/08 18:45:07;;;;;;;6.70;3.70;;;3.40;99.90;;;;;;4994588;28;20478;-58
2021/01/08 18:47:36;;;;;;;3.63;2.93;;;3.40;99.90;;;;;;4994704;28;20450;-57
2021/01/08 18:50:04;;;;;;;4.43;3.17;;;3.40;99.90;;;;;;4995842;28;20438;-60
2021/01/08 18:52:30;;;;;;;4.97;3.70;;;3.40;99.90;;;;;;4994784;28;20458;-57
2021/01/08 18:54:56;;;;;;;5.00;3.60;;;3.30;99.90;;;;;;4994680;28;20466;-58
2021/01/08 18:57:23;;;;;;;4.10;3.70;;;3.30;99.90;;;;;;4994888;28;20451;-56
2021/01/08 18:59:49;;;;;;;4.70;3.10;;;3.40;99.90;;;;;;4995191;28;20502;-62
2021/01/08 19:02:22;;;;;;;4.63;3.37;;;3.40;99.90;;;;;;4995877;28;20470;-60
2021/01/08 19:04:50;;;;;;;3.03;2.73;;;3.30;99.90;;;;;;4996455;28;20462;-60
2021/01/08 19:07:16;;;;;;;4.93;2.80;;;3.30;99.90;;;;;;4996906;28;20811;-60
2021/01/08 19:09:43;;;;;;;3.17;2.87;;;3.30;99.90;;;;;;4996791;28;20488;-57
2021/01/08 19:12:10;;;;;;;5.50;3.33;;;3.20;99.90;;;;;;4997067;28;20447;-59
2021/01/08 19:14:36;;;;;;;5.23;3.43;;;3.20;99.90;;;;;;4997101;28;20454;-58
2021/01/08 19:17:04;;;;;;;5.73;3.40;;;3.20;99.90;;;;;;4997242;28;20552;-56
2021/01/08 19:19:30;;;;;;;4.00;2.73;;;3.20;99.90;;;;;;4997004;28;20486;-60
2021/01/08 19:21:58;;;;;;;3.40;2.67;;;3.30;99.90;;;;;;4997010;28;20455;-60
2021/01/08 19:24:26;;;;;;;4.80;2.83;;;3.20;99.90;;;;;;4996557;28;20447;-56
2021/01/08 19:26:54;;;;;;;2.67;2.00;;;3.20;99.90;;;;;;4996657;28;20474;-61
2021/01/08 19:29:20;;;;;;;2.60;1.93;;;3.10;99.90;;;;;;4996402;28;20443;-59
2021/01/08 19:31:47;;;;;;;4.10;3.20;;;3.10;99.90;;;;;;4996392;28;20452;-61